createdAt,value
2023-04-30T00:00:01.337Z,98867.00
2023-04-30T00:02:28.325Z,98862.00
2023-04-30T00:04:55.316Z,98864.00
2023-04-30T00:07:22.278Z,98857.00
2023-04-30T00:09:49.152Z,98861.00
2023-04-30T00:12:16.331Z,98850.00
2023-04-30T00:14:43.268Z,98852.00
2023-04-30T00:17:10.228Z,98856.00
2023-04-30T00:19:37.248Z,98841.00
2023-04-30T00:22:04.213Z,98846.00
2023-04-30T00:24:31.244Z,98847.00
2023-04-30T00:26:58.195Z,98845.00
2023-04-30T00:29:25.218Z,98831.00
2023-04-30T00:31:52.166Z,98840.00
2023-04-30T00:34:19.304Z,98836.00
2023-04-30T00:36:46.289Z,98837.00
2023-04-30T00:39:13.494Z,98826.00
2023-04-30T00:41:40.498Z,98822.00
2023-04-30T00:44:07.425Z,98828.00
2023-04-30T00:46:34.453Z,98839.00
2023-04-30T00:49:01.393Z,98841.00
2023-04-30T00:51:29.327Z,98829.00
2023-04-30T00:53:56.341Z,98833.00
2023-04-30T00:56:23.265Z,98834.00
2023-04-30T00:58:50.363Z,98826.00
2023-04-30T01:01:18.049Z,98823.00
2023-04-30T01:03:45.126Z,98843.00
2023-04-30T01:06:12.207Z,98838.00
2023-04-30T01:08:39.128Z,98838.00
2023-04-30T01:11:39.507Z,98835.00
2023-04-30T01:14:59.469Z,98855.00
2023-04-30T01:17:48.318Z,98850.00
2023-04-30T01:20:15.335Z,98840.00
2023-04-30T01:22:47.058Z,98846.00
2023-04-30T01:25:45.249Z,98854.00
2023-04-30T01:28:17.006Z,98847.00
2023-04-30T01:30:44.330Z,98852.00
2023-04-30T01:33:12.669Z,98850.00
2023-04-30T01:36:19.733Z,98851.00
2023-04-30T01:39:11.158Z,98853.00
2023-04-30T01:41:45.775Z,98855.00
2023-04-30T01:44:48.762Z,98853.00
2023-04-30T01:47:22.658Z,98858.00
2023-04-30T01:50:06.024Z,98851.00
2023-04-30T01:52:41.238Z,98859.00
2023-04-30T01:55:30.638Z,98860.00
2023-04-30T01:57:59.843Z,98853.00
2023-04-30T02:00:27.716Z,98858.00
2023-04-30T02:02:54.851Z,98853.00
2023-04-30T02:05:21.973Z,98860.00
2023-04-30T02:07:50.217Z,98846.00
2023-04-30T02:10:20.975Z,98853.00
2023-04-30T02:12:47.907Z,98850.00
2023-04-30T02:15:15.038Z,98851.00
2023-04-30T02:17:42.032Z,98848.00
2023-04-30T02:20:09.565Z,98851.00
2023-04-30T02:22:36.988Z,98842.00
2023-04-30T02:25:04.290Z,98855.00
2023-04-30T02:27:32.181Z,98840.00
2023-04-30T02:29:59.720Z,98851.00
2023-04-30T02:32:26.857Z,98847.00
2023-04-30T02:34:53.820Z,98850.00
2023-04-30T02:37:20.785Z,98840.00
2023-04-30T02:39:47.842Z,98831.00
2023-04-30T02:42:14.856Z,98839.00
2023-04-30T02:44:41.828Z,98832.00
2023-04-30T02:47:08.770Z,98841.00
2023-04-30T02:49:35.744Z,98829.00
2023-04-30T02:52:02.679Z,98841.00
2023-04-30T02:54:29.626Z,98841.00
2023-04-30T02:56:57.736Z,98829.00
2023-04-30T02:59:24.666Z,98842.00
2023-04-30T03:01:51.595Z,98839.00
2023-04-30T03:04:18.537Z,98848.00
2023-04-30T03:06:45.546Z,98844.00
2023-04-30T03:09:12.728Z,98842.00
2023-04-30T03:11:39.664Z,98840.00
2023-04-30T03:14:06.574Z,98837.00
2023-04-30T03:16:33.569Z,98832.00
2023-04-30T03:19:00.552Z,98842.00
2023-04-30T03:21:27.559Z,98843.00
2023-04-30T03:23:54.552Z,98839.00
2023-04-30T03:26:21.572Z,98845.00
2023-04-30T03:28:48.545Z,98843.00
2023-04-30T03:31:15.548Z,98844.00
2023-04-30T03:33:42.532Z,98848.00
2023-04-30T03:36:09.510Z,98840.00
2023-04-30T03:38:36.405Z,98849.00
2023-04-30T03:41:04.637Z,98838.00
2023-04-30T03:43:31.669Z,98832.00
2023-04-30T03:45:58.727Z,98848.00
2023-04-30T03:48:25.774Z,98842.00
2023-04-30T03:50:52.680Z,98839.00
2023-04-30T03:53:19.621Z,98850.00
2023-04-30T03:55:47.952Z,98848.00
2023-04-30T03:58:15.080Z,98851.00
2023-04-30T04:00:42.057Z,98851.00
2023-04-30T04:03:09.002Z,98848.00
2023-04-30T04:05:35.950Z,98848.00
2023-04-30T04:08:02.868Z,98856.00
2023-04-30T04:10:29.836Z,98850.00
2023-04-30T04:12:56.795Z,98862.00
2023-04-30T04:15:23.748Z,98856.00
2023-04-30T04:17:50.756Z,98869.00
2023-04-30T04:20:17.851Z,98860.00
2023-04-30T04:22:44.799Z,98846.00
2023-04-30T04:25:11.788Z,98875.00
2023-04-30T04:27:38.636Z,98872.00
2023-04-30T04:30:06.567Z,98864.00
2023-04-30T04:32:33.458Z,98861.00
2023-04-30T04:35:00.438Z,98873.00
2023-04-30T04:37:27.379Z,98865.00
2023-04-30T04:39:54.492Z,98869.00
2023-04-30T04:42:21.571Z,98870.00
2023-04-30T04:44:48.571Z,98872.00
2023-04-30T04:47:15.486Z,98866.00
2023-04-30T04:49:42.378Z,98866.00
2023-04-30T04:52:09.382Z,98871.00
2023-04-30T04:54:36.271Z,98878.00
2023-04-30T04:57:03.264Z,98882.00
2023-04-30T04:59:30.208Z,98881.00
2023-04-30T05:01:57.128Z,98881.00
2023-04-30T05:04:24.110Z,98879.00
2023-04-30T05:06:51.021Z,98889.00
2023-04-30T05:09:17.904Z,98895.00
2023-04-30T05:11:45.980Z,98893.00
2023-04-30T05:14:12.942Z,98891.00
2023-04-30T05:16:39.986Z,98903.00
2023-04-30T05:19:07.077Z,98889.00
2023-04-30T05:21:33.991Z,98887.00
2023-04-30T05:24:00.957Z,98900.00
2023-04-30T05:26:27.899Z,98899.00
2023-04-30T05:28:54.844Z,98902.00
2023-04-30T05:31:21.886Z,98902.00
2023-04-30T05:33:48.782Z,98903.00
2023-04-30T05:36:15.688Z,98899.00
2023-04-30T05:38:42.672Z,98893.00
2023-04-30T05:41:12.626Z,98902.00
2023-04-30T05:43:39.583Z,98897.00
2023-04-30T05:46:06.766Z,98899.00
2023-04-30T05:48:33.784Z,98903.00
2023-04-30T05:51:00.720Z,98896.00
2023-04-30T05:53:27.762Z,98901.00
2023-04-30T05:55:54.743Z,98903.00
2023-04-30T05:58:21.685Z,98895.00
2023-04-30T06:00:51.915Z,98907.00
2023-04-30T06:03:19.732Z,98903.00
2023-04-30T06:05:49.967Z,98902.00
2023-04-30T06:08:16.985Z,98897.00
2023-04-30T06:10:43.929Z,98901.00
2023-04-30T06:13:10.984Z,98912.00
2023-04-30T06:15:38.206Z,98899.00
2023-04-30T06:18:05.221Z,98901.00
2023-04-30T06:20:32.302Z,98894.00
2023-04-30T06:22:59.252Z,98910.00
2023-04-30T06:25:26.178Z,98902.00
2023-04-30T06:27:53.079Z,98904.00
2023-04-30T06:30:20.278Z,98911.00
2023-04-30T06:32:47.284Z,98912.00
2023-04-30T06:35:14.704Z,98916.00
2023-04-30T06:37:41.647Z,98918.00
2023-04-30T06:40:08.993Z,98916.00
2023-04-30T06:42:36.028Z,98919.00
2023-04-30T06:45:03.571Z,98926.00
2023-04-30T06:47:34.176Z,98924.00
2023-04-30T06:50:01.833Z,98923.00
2023-04-30T06:52:29.528Z,98930.00
2023-04-30T06:54:56.602Z,98933.00
2023-04-30T06:57:23.554Z,98924.00
2023-04-30T06:59:50.517Z,98941.00
2023-04-30T07:02:18.103Z,98952.00
2023-04-30T07:04:46.270Z,98937.00
2023-04-30T07:07:13.242Z,98934.00
2023-04-30T07:09:40.302Z,98948.00
2023-04-30T07:12:07.261Z,98941.00
2023-04-30T07:14:34.246Z,98935.00
2023-04-30T07:17:01.133Z,98951.00
2023-04-30T07:19:28.089Z,98952.00
2023-04-30T07:21:54.978Z,98964.00
2023-04-30T07:24:21.863Z,98967.00
2023-04-30T07:26:48.832Z,98965.00
2023-04-30T07:29:15.730Z,98978.00
2023-04-30T07:31:42.681Z,98961.00
2023-04-30T07:34:09.627Z,98964.00
2023-04-30T07:36:36.548Z,98973.00
2023-04-30T07:39:03.553Z,98978.00
2023-04-30T07:41:30.462Z,98968.00
2023-04-30T07:43:57.457Z,98985.00
2023-04-30T07:46:24.641Z,98985.00
2023-04-30T07:48:51.778Z,98981.00
2023-04-30T07:51:18.757Z,98975.00
2023-04-30T07:53:45.755Z,98984.00
2023-04-30T07:56:12.686Z,98981.00
2023-04-30T07:58:39.681Z,98971.00
2023-04-30T08:01:06.665Z,98983.00
2023-04-30T08:03:33.677Z,98977.00
2023-04-30T08:06:00.910Z,98980.00
2023-04-30T08:08:27.883Z,98977.00
2023-04-30T08:10:54.861Z,98990.00
2023-04-30T08:13:21.804Z,98974.00
2023-04-30T08:15:48.766Z,98984.00
2023-04-30T08:18:15.808Z,98989.00
2023-04-30T08:20:42.809Z,98984.00
2023-04-30T08:23:09.734Z,98982.00
2023-04-30T08:25:36.739Z,98990.00
2023-04-30T08:28:03.688Z,98997.00
2023-04-30T08:30:30.631Z,98995.00
2023-04-30T08:32:57.861Z,99000.00
2023-04-30T08:35:24.961Z,99005.00
2023-04-30T08:37:51.901Z,98987.00
2023-04-30T08:40:19.020Z,98981.00
2023-04-30T08:42:51.231Z,99009.00
2023-04-30T08:45:18.115Z,98992.00
2023-04-30T08:47:45.160Z,98997.00
2023-04-30T08:50:12.103Z,99009.00
2023-04-30T08:52:39.096Z,99013.00
2023-04-30T08:55:08.561Z,99019.00
2023-04-30T08:57:37.171Z,99022.00
2023-04-30T09:00:04.766Z,99014.00
2023-04-30T09:02:33.385Z,99031.00
2023-04-30T09:05:00.362Z,99018.00
2023-04-30T09:07:27.408Z,99018.00
2023-04-30T09:09:54.632Z,99021.00
2023-04-30T09:12:22.036Z,99016.00
2023-04-30T09:15:02.717Z,99028.00
2023-04-30T09:17:30.458Z,99022.00
2023-04-30T09:20:14.156Z,99029.00
2023-04-30T09:22:41.960Z,99035.00
2023-04-30T09:25:09.444Z,99025.00
2023-04-30T09:27:36.362Z,99025.00
2023-04-30T09:30:03.831Z,99035.00
2023-04-30T09:32:30.820Z,99024.00
2023-04-30T09:34:57.815Z,99028.00
2023-04-30T09:37:38.746Z,99028.00
2023-04-30T09:40:06.868Z,99027.00
2023-04-30T09:42:33.776Z,99026.00
2023-04-30T09:45:00.756Z,99023.00
2023-04-30T09:47:29.977Z,99027.00
2023-04-30T09:49:57.263Z,99024.00
2023-04-30T09:52:24.430Z,99025.00
2023-04-30T09:54:51.359Z,99021.00
2023-04-30T09:57:18.418Z,99025.00
2023-04-30T09:59:46.680Z,99032.00
2023-04-30T10:02:16.854Z,99022.00
2023-04-30T10:04:45.073Z,99026.00
2023-04-30T10:07:22.268Z,99024.00
2023-04-30T10:10:18.824Z,99010.00
2023-04-30T10:12:54.681Z,99010.00
2023-04-30T10:15:25.961Z,99014.00
2023-04-30T10:19:21.514Z,99007.00
2023-04-30T10:21:48.505Z,99010.00
2023-04-30T10:24:16.073Z,99007.00
2023-04-30T10:26:42.985Z,98998.00
2023-04-30T10:29:09.931Z,98996.00
2023-04-30T10:31:36.931Z,98995.00
2023-04-30T10:34:26.154Z,98995.00
2023-04-30T10:36:59.582Z,98995.00
2023-04-30T10:39:27.208Z,98992.00
2023-04-30T10:42:08.751Z,98988.00
2023-04-30T10:44:37.436Z,98984.00
2023-04-30T10:47:05.814Z,98977.00
2023-04-30T10:49:32.812Z,98984.00
2023-04-30T10:52:04.059Z,98986.00
2023-04-30T10:54:37.367Z,98983.00
2023-04-30T10:57:14.110Z,98972.00
2023-04-30T10:59:51.774Z,98974.00
2023-04-30T11:02:18.894Z,98964.00
2023-04-30T11:05:18.939Z,98964.00
2023-04-30T11:07:56.388Z,98958.00
2023-04-30T11:10:25.975Z,98951.00
2023-04-30T11:12:54.426Z,98952.00
2023-04-30T11:15:25.141Z,98952.00
2023-04-30T11:17:52.336Z,98951.00
2023-04-30T11:20:21.201Z,98946.00
2023-04-30T11:22:48.193Z,98951.00
2023-04-30T11:25:19.436Z,98944.00
2023-04-30T11:27:46.407Z,98938.00
2023-04-30T11:30:15.713Z,98941.00
2023-04-30T11:32:47.738Z,98943.00
2023-04-30T11:35:17.713Z,98946.00
2023-04-30T11:37:44.939Z,98943.00
2023-04-30T11:40:13.477Z,98947.00
2023-04-30T11:42:45.426Z,98951.00
2023-04-30T11:45:16.775Z,98949.00
2023-04-30T11:47:56.505Z,98942.00
2023-04-30T11:50:27.675Z,98951.00
2023-04-30T11:52:57.839Z,98938.00
2023-04-30T11:55:26.075Z,98944.00
2023-04-30T11:57:54.310Z,98941.00
2023-04-30T12:00:25.784Z,98933.00
2023-04-30T12:02:52.870Z,98936.00
2023-04-30T12:05:24.416Z,98941.00
2023-04-30T12:08:00.932Z,98938.00
2023-04-30T12:10:27.868Z,98934.00
2023-04-30T12:12:54.882Z,98935.00
2023-04-30T12:15:23.902Z,98932.00
2023-04-30T12:17:50.885Z,98928.00
2023-04-30T12:20:17.897Z,98924.00
2023-04-30T12:22:44.880Z,98928.00
2023-04-30T12:25:19.807Z,98930.00
2023-04-30T12:27:52.865Z,98934.00
2023-04-30T12:30:24.771Z,98931.00
2023-04-30T12:32:52.871Z,98921.00
2023-04-30T12:35:21.570Z,98927.00
2023-04-30T12:38:03.785Z,98926.00
2023-04-30T12:40:30.720Z,98921.00
2023-04-30T12:43:05.901Z,98925.00
2023-04-30T12:45:53.378Z,98925.00
2023-04-30T12:48:24.608Z,98928.00
2023-04-30T12:50:55.239Z,98931.00
2023-04-30T12:53:22.425Z,98933.00
2023-04-30T12:56:24.896Z,98926.00
2023-04-30T12:58:51.749Z,98921.00
2023-04-30T13:01:20.538Z,98923.00
2023-04-30T13:03:47.776Z,98923.00
2023-04-30T13:06:14.773Z,98913.00
2023-04-30T13:08:50.375Z,98924.00
2023-04-30T13:11:25.179Z,98908.00
2023-04-30T13:13:52.032Z,98912.00
2023-04-30T13:16:19.008Z,98917.00
2023-04-30T13:18:45.914Z,98911.00
2023-04-30T13:21:12.830Z,98894.00
2023-04-30T13:23:51.263Z,98904.00
2023-04-30T13:26:20.241Z,98894.00
2023-04-30T13:28:47.086Z,98894.00
2023-04-30T13:31:13.972Z,98897.00
2023-04-30T13:33:40.929Z,98887.00
2023-04-30T13:36:07.950Z,98871.00
2023-04-30T13:38:34.806Z,98880.00
2023-04-30T13:41:01.733Z,98877.00
2023-04-30T13:43:28.611Z,98867.00
2023-04-30T13:45:55.556Z,98872.00
2023-04-30T13:48:22.442Z,98871.00
2023-04-30T13:50:49.291Z,98867.00
2023-04-30T13:53:16.177Z,98863.00
2023-04-30T13:55:43.210Z,98863.00
2023-04-30T13:58:10.189Z,98855.00
2023-04-30T14:00:37.064Z,98857.00
2023-04-30T14:03:06.413Z,98855.00
2023-04-30T14:05:34.713Z,98848.00
2023-04-30T14:08:01.616Z,98853.00
2023-04-30T14:10:28.470Z,98850.00
2023-04-30T14:12:55.378Z,98853.00
2023-04-30T14:15:22.257Z,98849.00
2023-04-30T14:17:49.171Z,98842.00
2023-04-30T14:20:16.057Z,98843.00
2023-04-30T14:22:42.934Z,98849.00
2023-04-30T14:25:10.131Z,98845.00
2023-04-30T14:27:37.953Z,98838.00
2023-04-30T14:30:05.532Z,98844.00
2023-04-30T14:32:32.440Z,98845.00
2023-04-30T14:34:59.450Z,98847.00
2023-04-30T14:37:26.371Z,98829.00
2023-04-30T14:39:53.660Z,98841.00
2023-04-30T14:42:20.924Z,98832.00
2023-04-30T14:44:47.806Z,98841.00
2023-04-30T14:47:14.665Z,98843.00
2023-04-30T14:49:41.604Z,98831.00
2023-04-30T14:52:10.211Z,98834.00
2023-04-30T14:54:37.108Z,98828.00
2023-04-30T14:57:04.098Z,98842.00
2023-04-30T14:59:31.024Z,98829.00
2023-04-30T15:01:58.002Z,98835.00
2023-04-30T15:04:24.910Z,98839.00
2023-04-30T15:06:51.790Z,98838.00
2023-04-30T15:09:18.715Z,98836.00
2023-04-30T15:11:45.645Z,98832.00
2023-04-30T15:14:12.595Z,98822.00
2023-04-30T15:16:39.612Z,98833.00
2023-04-30T15:19:06.507Z,98834.00
2023-04-30T15:21:33.398Z,98825.00
2023-04-30T15:24:00.306Z,98826.00
2023-04-30T15:26:28.751Z,98834.00
2023-04-30T15:28:56.270Z,98826.00
2023-04-30T15:31:23.233Z,98820.00
2023-04-30T15:33:50.138Z,98816.00
2023-04-30T15:36:17.102Z,98831.00
2023-04-30T15:38:44.039Z,98826.00
2023-04-30T15:41:10.959Z,98813.00
2023-04-30T15:43:37.869Z,98826.00
2023-04-30T15:46:04.934Z,98826.00
2023-04-30T15:48:31.803Z,98820.00
2023-04-30T15:50:58.698Z,98826.00
2023-04-30T15:53:25.567Z,98822.00
2023-04-30T15:55:52.443Z,98820.00
2023-04-30T15:58:19.345Z,98817.00
2023-04-30T16:00:46.237Z,98823.00
2023-04-30T16:03:13.178Z,98813.00
2023-04-30T16:05:40.128Z,98822.00
2023-04-30T16:08:10.360Z,98818.00
2023-04-30T16:10:37.757Z,98820.00
2023-04-30T16:13:05.054Z,98826.00
2023-04-30T16:15:32.049Z,98829.00
2023-04-30T16:17:59.087Z,98826.00
2023-04-30T16:20:26.076Z,98829.00
2023-04-30T16:22:53.722Z,98815.00
2023-04-30T16:25:22.345Z,98827.00
2023-04-30T16:27:50.355Z,98824.00
2023-04-30T16:30:20.751Z,98836.00
2023-04-30T16:32:48.387Z,98829.00
2023-04-30T16:35:18.741Z,98837.00
2023-04-30T16:37:49.253Z,98836.00
2023-04-30T16:40:17.553Z,98827.00
2023-04-30T16:42:44.963Z,98840.00
2023-04-30T16:45:12.358Z,98833.00
2023-04-30T16:47:39.997Z,98823.00
2023-04-30T16:50:11.304Z,98826.00
2023-04-30T16:52:42.051Z,98832.00
2023-04-30T16:55:09.753Z,98831.00
2023-04-30T16:57:37.274Z,98830.00
2023-04-30T17:00:13.354Z,98829.00
2023-04-30T17:02:44.245Z,98838.00
2023-04-30T17:05:14.352Z,98824.00
2023-04-30T17:07:43.863Z,98825.00
2023-04-30T17:10:15.154Z,98821.00
2023-04-30T17:12:42.854Z,98826.00
2023-04-30T17:15:13.362Z,98828.00
2023-04-30T17:17:43.396Z,98827.00
2023-04-30T17:20:14.364Z,98828.00
2023-04-30T17:22:51.067Z,98827.00
2023-04-30T17:25:18.381Z,98831.00
2023-04-30T17:27:48.770Z,98837.00
2023-04-30T17:30:16.268Z,98829.00
2023-04-30T17:32:47.004Z,98828.00
2023-04-30T17:35:16.127Z,98837.00
2023-04-30T17:37:46.665Z,98835.00
2023-04-30T17:40:13.825Z,98836.00
2023-04-30T17:42:44.428Z,98838.00
2023-04-30T17:45:19.574Z,98848.00
2023-04-30T17:47:52.008Z,98833.00
2023-04-30T17:50:19.781Z,98826.00
2023-04-30T17:52:47.077Z,98847.00
2023-04-30T17:55:14.386Z,98846.00
2023-04-30T17:57:42.188Z,98853.00
2023-04-30T18:00:10.575Z,98851.00
2023-04-30T18:02:41.032Z,98859.00
2023-04-30T18:05:08.888Z,98865.00
2023-04-30T18:07:40.577Z,98849.00
2023-04-30T18:10:12.081Z,98856.00
2023-04-30T18:12:42.487Z,98868.00
2023-04-30T18:15:13.116Z,98864.00
2023-04-30T18:17:42.661Z,98860.00
2023-04-30T18:20:11.383Z,98855.00
2023-04-30T18:22:41.506Z,98861.00
2023-04-30T18:25:15.389Z,98854.00
2023-04-30T18:27:42.290Z,98857.00
2023-04-30T18:30:13.285Z,98862.00
2023-04-30T18:32:47.498Z,98864.00
2023-04-30T18:35:14.919Z,98870.00
2023-04-30T18:37:42.486Z,98866.00
2023-04-30T18:40:10.063Z,98865.00
2023-04-30T18:42:36.955Z,98860.00
2023-04-30T18:45:05.272Z,98861.00
2023-04-30T18:47:32.880Z,98874.00
2023-04-30T18:49:59.957Z,98873.00
2023-04-30T18:52:28.491Z,98885.00
2023-04-30T18:55:01.601Z,98888.00
2023-04-30T18:57:28.795Z,98898.00
2023-04-30T18:59:56.213Z,98896.00
2023-04-30T19:02:23.418Z,98893.00
2023-04-30T19:04:51.022Z,98908.00
2023-04-30T19:07:18.994Z,98909.00
2023-04-30T19:09:51.799Z,98905.00
2023-04-30T19:12:22.801Z,98900.00
2023-04-30T19:14:50.205Z,98911.00
2023-04-30T19:17:18.876Z,98917.00
2023-04-30T19:19:48.406Z,98909.00
2023-04-30T19:22:19.709Z,98910.00
2023-04-30T19:24:47.125Z,98922.00
2023-04-30T19:27:14.084Z,98923.00
2023-04-30T19:29:41.802Z,98911.00
2023-04-30T19:32:12.059Z,98921.00
2023-04-30T19:34:39.509Z,98914.00
2023-04-30T19:37:07.421Z,98918.00
2023-04-30T19:39:35.318Z,98930.00
2023-04-30T19:42:02.415Z,98925.00
2023-04-30T19:44:32.413Z,98926.00
2023-04-30T19:46:59.713Z,98917.00
2023-04-30T19:49:27.519Z,98928.00
2023-04-30T19:51:55.616Z,98933.00
2023-04-30T19:54:22.664Z,98933.00
2023-04-30T19:56:50.053Z,98917.00
2023-04-30T19:59:17.107Z,98928.00
2023-04-30T20:01:44.074Z,98939.00
2023-04-30T20:04:11.067Z,98940.00
2023-04-30T20:06:39.083Z,98932.00
2023-04-30T20:09:06.058Z,98932.00
2023-04-30T20:11:35.500Z,98934.00
2023-04-30T20:14:03.532Z,98930.00
2023-04-30T20:16:30.446Z,98957.00
2023-04-30T20:19:00.402Z,98938.00
2023-04-30T20:21:32.645Z,98938.00
2023-04-30T20:24:08.123Z,98940.00
2023-04-30T20:26:35.030Z,98947.00
2023-04-30T20:29:02.132Z,98944.00
2023-04-30T20:31:32.261Z,98939.00
2023-04-30T20:34:00.028Z,98946.00
2023-04-30T20:36:26.993Z,98944.00
2023-04-30T20:38:54.131Z,98939.00
2023-04-30T20:41:21.231Z,98933.00
2023-04-30T20:43:51.096Z,98937.00
2023-04-30T20:46:18.124Z,98942.00
2023-04-30T20:48:49.142Z,98943.00
2023-04-30T20:51:19.538Z,98934.00
2023-04-30T20:53:46.539Z,98928.00
2023-04-30T20:56:16.540Z,98941.00
2023-04-30T20:58:43.749Z,98941.00
2023-04-30T21:01:15.362Z,98937.00
2023-04-30T21:03:42.378Z,98939.00
2023-04-30T21:06:09.364Z,98940.00
2023-04-30T21:08:36.320Z,98941.00
2023-04-30T21:11:03.205Z,98937.00
2023-04-30T21:13:30.057Z,98933.00
2023-04-30T21:15:56.965Z,98928.00
2023-04-30T21:18:26.874Z,98936.00
2023-04-30T21:20:53.840Z,98933.00
2023-04-30T21:23:20.752Z,98934.00
2023-04-30T21:25:47.629Z,98934.00
2023-04-30T21:28:14.502Z,98943.00
2023-04-30T21:30:41.422Z,98937.00
2023-04-30T21:33:08.361Z,98938.00
2023-04-30T21:35:35.307Z,98936.00
2023-04-30T21:38:02.204Z,98941.00
2023-04-30T21:40:32.127Z,98943.00
2023-04-30T21:43:02.127Z,98946.00
2023-04-30T21:45:29.402Z,98936.00
2023-04-30T21:47:56.387Z,98952.00
2023-04-30T21:50:23.465Z,98945.00
2023-04-30T21:52:50.953Z,98937.00
2023-04-30T21:55:17.864Z,98950.00
2023-04-30T21:57:44.756Z,98957.00
2023-04-30T22:00:12.194Z,98951.00
2023-04-30T22:02:39.261Z,98956.00
2023-04-30T22:05:06.894Z,98956.00
2023-04-30T22:07:40.651Z,98952.00
2023-04-30T22:10:08.176Z,98961.00
2023-04-30T22:12:35.234Z,98963.00
2023-04-30T22:15:02.586Z,98953.00
2023-04-30T22:17:35.344Z,98966.00
2023-04-30T22:20:02.296Z,98965.00
2023-04-30T22:22:29.243Z,98962.00
2023-04-30T22:24:56.190Z,98960.00
2023-04-30T22:27:23.129Z,98977.00
2023-04-30T22:29:50.098Z,98974.00
2023-04-30T22:32:17.072Z,98972.00
2023-04-30T22:34:43.996Z,98980.00
2023-04-30T22:37:14.021Z,98971.00
2023-04-30T22:39:40.902Z,98971.00
2023-04-30T22:42:08.629Z,98980.00
2023-04-30T22:44:35.511Z,98989.00
2023-04-30T22:47:02.508Z,98981.00
2023-04-30T22:49:31.739Z,98987.00
2023-04-30T22:51:59.580Z,98983.00
2023-04-30T22:54:26.455Z,98972.00
2023-04-30T22:56:53.357Z,98980.00
2023-04-30T22:59:20.276Z,98984.00
2023-04-30T23:01:47.145Z,98970.00
2023-04-30T23:04:14.373Z,98983.00
2023-04-30T23:06:41.492Z,98974.00
2023-04-30T23:09:08.786Z,98989.00
2023-04-30T23:11:35.722Z,98970.00
2023-04-30T23:14:02.645Z,98976.00
2023-04-30T23:16:29.600Z,98976.00
2023-04-30T23:18:56.610Z,98974.00
2023-04-30T23:21:23.718Z,98980.00
2023-04-30T23:23:50.663Z,98983.00
2023-04-30T23:26:17.580Z,98972.00
2023-04-30T23:28:44.626Z,98982.00
2023-04-30T23:31:11.532Z,98971.00
2023-04-30T23:33:38.557Z,98967.00
2023-04-30T23:36:06.022Z,98979.00
2023-04-30T23:38:32.889Z,98968.00
2023-04-30T23:40:59.810Z,98968.00
2023-04-30T23:43:26.761Z,98968.00
2023-04-30T23:45:55.289Z,98973.00
2023-04-30T23:48:22.166Z,98966.00
2023-04-30T23:50:59.172Z,98951.00
2023-04-30T23:53:26.763Z,98951.00
2023-04-30T23:55:55.324Z,98952.00
2023-04-30T23:58:22.322Z,98951.00
